Big Bear Station Historical Data
Daily Summary for April 12, 2019 Units:  English    Metric   Both
Next Day »
Daily Weekly Monthly Yearly Custom
  High: Low: Average:
Temperature: 40.8 °F 32.7 °F 34.3 °F
Dew Point: 31.5 °F 28.2 °F 30 °F
Humidity: 91% 61% 84%
Wind Speed: 7.8mph 0.0mph 3.8mph
Wind Gust: -999.0mph - -
Wind- - West
Pressure: 23.28 in 23.22 in -
Precipitation: 0.00 in    
Historical Graphs
 
 
Tabular Data for April 12, 2019
Time Temperature Dew Point Pressure Wind Wind Speed Wind Gust Humidity Rainfall Rate (Hourly)
00:12 34.2 °F 28.4 °F 23.26 in Calm   -999.0 mph 79% 0.00 in
00:27 34.0 °F 28.2 °F 23.26 in ENE 3.2 mph -999.0 mph 79% 0.00 in
00:42 33.8 °F 28.6 °F 23.26 in WSW 3.7 mph -999.0 mph 81% 0.00 in
00:57 33.4 °F 28.2 °F 23.25 in Calm   -999.0 mph 81% 0.00 in
01:12 33.4 °F 28.2 °F 23.25 in East 5.8 mph -999.0 mph 81% 0.00 in
01:30 33.1 °F 28.5 °F 23.25 in North 3.7 mph -999.0 mph 83% 0.00 in
01:46 33.4 °F 29.4 °F 23.25 in NNW 5.3 mph -999.0 mph 85% 0.00 in
02:07 33.3 °F 30.1 °F 23.24 in NNW 6.3 mph -999.0 mph 88% 0.00 in
02:22 32.9 °F 30.0 °F 23.24 in NNW 7.8 mph -999.0 mph 89% 0.00 in
02:38 33.1 °F 30.2 °F 23.23 in NW 6.3 mph -999.0 mph 89% 0.00 in
02:55 32.9 °F 30.0 °F 23.23 in NW 7.8 mph -999.0 mph 89% 0.00 in
03:12 32.7 °F 30.1 °F 23.23 in NNW 7.3 mph -999.0 mph 90% 0.00 in
03:28 32.9 °F 30.3 °F 23.23 in NNW 5.8 mph -999.0 mph 90% 0.00 in
03:45 33.3 °F 30.4 °F 23.23 in NNE 4.2 mph -999.0 mph 89% 0.00 in
04:00 33.3 °F 30.4 °F 23.23 in North 2.7 mph -999.0 mph 89% 0.00 in
04:15 33.3 °F 30.7 °F 23.23 in Calm   -999.0 mph 90% 0.00 in
04:32 33.4 °F 30.8 °F 23.23 in North 1.1 mph -999.0 mph 90% 0.00 in
04:47 33.4 °F 30.5 °F 23.23 in NNW 4.2 mph -999.0 mph 89% 0.00 in
05:02 33.4 °F 30.5 °F 23.23 in NNW 3.7 mph -999.0 mph 89% 0.00 in
05:18 33.6 °F 31.0 °F 23.23 in NNW 5.8 mph -999.0 mph 90% 0.00 in
05:33 33.8 °F 31.2 °F 23.22 in North 6.3 mph -999.0 mph 90% 0.00 in
05:50 33.8 °F 31.5 °F 23.22 in WNW 5.3 mph -999.0 mph 91% 0.00 in
06:07 33.6 °F 31.3 °F 23.22 in North 4.7 mph -999.0 mph 91% 0.00 in
06:23 33.4 °F 30.8 °F 23.23 in NNW 4.7 mph -999.0 mph 90% 0.00 in
06:40 33.3 °F 30.4 °F 23.23 in NNE 5.8 mph -999.0 mph 89% 0.00 in
06:56 32.9 °F 29.7 °F 23.24 in NNW 4.2 mph -999.0 mph 88% 0.00 in
07:14 33.3 °F 29.9 °F 23.24 in Calm   -999.0 mph 87% 0.00 in
07:29 33.6 °F 29.6 °F 23.24 in ESE 2.2 mph -999.0 mph 85% 0.00 in
07:47 34.2 °F 30.5 °F 23.24 in Calm   -999.0 mph 86% 0.00 in
08:03 34.7 °F 30.7 °F 23.25 in Calm   -999.0 mph 85% 0.00 in
08:19 35.1 °F 30.8 °F 23.25 in North 2.2 mph -999.0 mph 84% 0.00 in
08:36 35.1 °F 30.8 °F 23.25 in NE 1.1 mph -999.0 mph 84% 0.00 in
08:51 35.8 °F 31.1 °F 23.25 in NW 4.7 mph -999.0 mph 83% 0.00 in
09:09 36.7 °F 30.5 °F 23.26 in NNW 3.2 mph -999.0 mph 78% 0.00 in
09:24 36.5 °F 30.3 °F 23.26 in NNW 3.7 mph -999.0 mph 78% 0.00 in
09:57 38.1 °F 30.9 °F 23.26 in Calm   -999.0 mph 75% 0.00 in
10:12 38.5 °F 29.9 °F 23.27 in West 6.8 mph -999.0 mph 71% 0.00 in
10:37 39.0 °F 29.0 °F 23.27 in NNW 5.8 mph -999.0 mph 67% 0.00 in
10:52 40.8 °F 28.4 °F 23.28 in ESE 4.7 mph -999.0 mph 61% 0.00 in
Big Bear CA Weather